Terminal Aerodrome Forecast
Issued by NWS Duluth, MN

Home | Current Version | Previous Version | Text Only | Print | Product List | Glossary On
Versions: 1 2 3 4 5 6 7 8 9 10 11 12 13 14 15 16 17 18
000
FTUS43 KDLH 270500
TAFINL
TAF
KINL 270520Z 2706/2806 VRB04KT P6SM VCTS SCT050CB
     FM270800 30005KT P6SM VCSH BKN025 OVC080
      TEMPO 2710/2714 3SM -SHRA BR OVC018
     FM271500 02013G20KT P6SM VCSH BKN025 BKN070
     FM271800 01012KT P6SM SCT025 BKN050
     FM272200 36007KT P6SM SCT050=

USA.gov is the U.S. government's official web portal to all federal, state and local government web resources and services.